createdAt,value
2023-02-13T00:00:00.717Z,23.67
2023-02-13T00:02:46.601Z,25.38
2023-02-13T00:05:32.384Z,22.40
2023-02-13T00:08:18.325Z,21.73
2023-02-13T00:11:04.266Z,21.88
2023-02-13T00:13:50.252Z,23.63
2023-02-13T00:16:36.344Z,21.55
2023-02-13T00:19:22.495Z,23.52
2023-02-13T00:22:11.844Z,21.83
2023-02-13T00:24:57.808Z,20.77
2023-02-13T00:27:43.650Z,21.27
2023-02-13T00:30:29.607Z,24.48
2023-02-13T00:33:15.486Z,20.73
2023-02-13T00:36:13.130Z,22.02
2023-02-13T00:38:59.180Z,22.33
2023-02-13T00:41:45.072Z,22.45
2023-02-13T00:44:31.477Z,22.10
2023-02-13T00:47:17.613Z,22.95
2023-02-13T00:50:03.572Z,23.05
2023-02-13T00:52:49.809Z,22.60
2023-02-13T00:55:35.806Z,21.40
2023-02-13T00:58:23.507Z,20.40
2023-02-13T01:01:10.187Z,21.60
2023-02-13T01:03:56.322Z,20.38
2023-02-13T01:06:42.193Z,20.95
2023-02-13T01:09:28.008Z,23.17
2023-02-13T01:12:13.839Z,21.30
2023-02-13T01:15:01.760Z,23.38
2023-02-13T01:17:47.737Z,21.30
2023-02-13T01:20:33.940Z,20.88
2023-02-13T01:23:19.910Z,20.00
2023-02-13T01:26:08.402Z,20.70
2023-02-13T01:28:55.145Z,21.48
2023-02-13T01:31:41.316Z,20.65
2023-02-13T01:34:27.446Z,22.50
2023-02-13T01:37:13.706Z,22.98
2023-02-13T01:39:59.843Z,20.83
2023-02-13T01:42:45.693Z,22.88
2023-02-13T01:45:31.736Z,22.48
2023-02-13T01:48:25.981Z,20.67
2023-02-13T01:51:17.751Z,22.00
2023-02-13T01:54:12.566Z,21.40
2023-02-13T01:57:03.683Z,21.85
2023-02-13T01:59:55.933Z,20.52
2023-02-13T02:02:46.154Z,21.60
2023-02-13T02:05:34.625Z,23.27
2023-02-13T02:08:21.293Z,21.70
2023-02-13T02:11:18.097Z,25.00
2023-02-13T02:14:04.593Z,32.05
2023-02-13T02:16:53.904Z,35.45
2023-02-13T02:19:46.650Z,39.38
2023-02-13T02:23:23.553Z,41.45
2023-02-13T02:26:21.511Z,45.83
2023-02-13T02:29:36.525Z,41.17
2023-02-13T02:32:37.654Z,36.60
2023-02-13T02:35:34.220Z,37.47
2023-02-13T02:38:54.188Z,40.42
2023-02-13T02:42:05.533Z,38.92
2023-02-13T02:44:59.457Z,37.95
2023-02-13T02:48:36.180Z,42.13
2023-02-13T02:51:26.272Z,43.10
2023-02-13T02:54:38.934Z,38.05
2023-02-13T02:57:49.133Z,37.67
2023-02-13T03:00:57.892Z,32.33
2023-02-13T03:04:03.115Z,26.48
2023-02-13T03:06:51.660Z,30.60
2023-02-13T03:09:59.903Z,52.75
2023-02-13T03:13:13.865Z,60.80
2023-02-13T03:16:19.080Z,52.63
2023-02-13T03:19:23.592Z,43.20
2023-02-13T03:22:22.989Z,41.70
2023-02-13T03:25:15.057Z,39.90
2023-02-13T03:28:48.874Z,41.75
2023-02-13T03:32:01.570Z,39.08
2023-02-13T03:35:10.964Z,39.22
2023-02-13T03:38:03.093Z,40.33
2023-02-13T03:41:29.919Z,41.67
2023-02-13T03:44:17.910Z,39.75
2023-02-13T03:47:04.547Z,48.70
2023-02-13T03:50:06.573Z,61.80
2023-02-13T03:52:55.726Z,51.42
2023-02-13T03:56:01.985Z,50.42
2023-02-13T03:59:10.614Z,46.78
2023-02-13T04:02:14.099Z,48.88
2023-02-13T04:05:15.234Z,45.40
2023-02-13T04:08:01.107Z,43.85
2023-02-13T04:11:00.157Z,46.67
2023-02-13T04:13:51.891Z,49.42
2023-02-13T04:16:41.587Z,45.80
2023-02-13T04:19:27.817Z,43.65
2023-02-13T04:22:15.145Z,41.60
2023-02-13T04:25:01.308Z,42.53
2023-02-13T04:27:47.096Z,43.33
2023-02-13T04:30:33.329Z,40.00
2023-02-13T04:33:19.352Z,39.72
2023-02-13T04:36:05.877Z,44.45
2023-02-13T04:38:52.152Z,49.10
2023-02-13T04:41:38.216Z,51.53
2023-02-13T04:44:24.310Z,49.13
2023-02-13T04:47:10.325Z,52.65
2023-02-13T04:49:56.167Z,51.95
2023-02-13T04:52:42.057Z,52.05
2023-02-13T04:55:28.522Z,54.20
2023-02-13T04:58:14.456Z,50.63
2023-02-13T05:01:00.589Z,44.90
2023-02-13T05:03:46.695Z,49.88
2023-02-13T05:06:32.543Z,45.25
2023-02-13T05:09:18.563Z,46.72
2023-02-13T05:12:04.444Z,46.05
2023-02-13T05:14:50.401Z,43.78
2023-02-13T05:17:35.980Z,40.13
2023-02-13T05:20:21.741Z,39.55
2023-02-13T05:23:26.325Z,42.80
2023-02-13T05:26:12.184Z,46.55
2023-02-13T05:29:16.473Z,52.55
2023-02-13T05:32:02.732Z,51.63
2023-02-13T05:34:48.954Z,53.17
2023-02-13T05:37:34.816Z,54.42
2023-02-13T05:40:22.263Z,51.83
2023-02-13T05:43:09.026Z,52.05
2023-02-13T05:46:03.145Z,50.33
2023-02-13T05:48:48.850Z,45.03
2023-02-13T05:51:34.646Z,40.33
2023-02-13T05:54:20.809Z,39.38
2023-02-13T05:57:06.713Z,35.00
2023-02-13T05:59:52.529Z,37.33
2023-02-13T06:02:38.540Z,41.28
2023-02-13T06:05:24.377Z,38.42
2023-02-13T06:08:10.022Z,37.75
2023-02-13T06:10:55.870Z,35.30
2023-02-13T06:13:41.707Z,34.63
2023-02-13T06:16:27.548Z,32.88
2023-02-13T06:19:13.150Z,32.60
2023-02-13T06:21:59.052Z,33.90
2023-02-13T06:24:44.621Z,30.73
2023-02-13T06:27:31.850Z,32.78
2023-02-13T06:30:18.793Z,35.90
2023-02-13T06:33:05.032Z,37.50
2023-02-13T06:35:50.915Z,47.15
2023-02-13T06:38:36.811Z,57.75
2023-02-13T06:41:22.599Z,52.22
2023-02-13T06:44:08.569Z,50.50
2023-02-13T06:46:54.492Z,70.10
2023-02-13T06:49:40.185Z,83.30
2023-02-13T06:52:26.031Z,90.25
2023-02-13T06:55:11.889Z,90.63
2023-02-13T06:57:57.791Z,82.60
2023-02-13T07:00:43.989Z,67.90
2023-02-13T07:03:30.018Z,59.05
2023-02-13T07:06:20.243Z,59.03
2023-02-13T07:09:06.261Z,52.72
2023-02-13T07:11:52.481Z,49.35
2023-02-13T07:14:38.669Z,42.13
2023-02-13T07:17:24.729Z,42.42
2023-02-13T07:20:10.982Z,39.92
2023-02-13T07:23:01.387Z,37.20
2023-02-13T07:25:47.130Z,36.05
2023-02-13T07:28:33.052Z,36.33
2023-02-13T07:31:19.266Z,38.08
2023-02-13T07:34:05.124Z,37.00
2023-02-13T07:36:50.866Z,36.67
2023-02-13T07:39:38.931Z,33.17
2023-02-13T07:42:24.811Z,26.92
2023-02-13T07:45:12.010Z,23.17
2023-02-13T07:47:58.473Z,22.65
2023-02-13T07:50:44.574Z,22.23
2023-02-13T07:53:30.196Z,22.98
2023-02-13T07:56:16.108Z,22.65
2023-02-13T07:59:01.914Z,22.02
2023-02-13T08:01:47.735Z,24.83
2023-02-13T08:04:33.581Z,23.00
2023-02-13T08:07:19.883Z,20.23
2023-02-13T08:10:27.025Z,21.35
2023-02-13T08:13:14.428Z,20.60
2023-02-13T08:16:00.650Z,19.48
2023-02-13T08:18:46.380Z,19.13
2023-02-13T08:21:32.319Z,20.35
2023-02-13T08:24:18.407Z,19.10
2023-02-13T08:27:04.458Z,19.20
2023-02-13T08:29:54.328Z,19.05
2023-02-13T08:32:53.388Z,20.00
2023-02-13T08:35:40.061Z,19.40
2023-02-13T08:38:26.389Z,18.42
2023-02-13T08:41:12.232Z,17.90
2023-02-13T08:43:58.051Z,17.35
2023-02-13T08:46:43.959Z,17.48
2023-02-13T08:49:30.654Z,17.95
2023-02-13T08:52:16.658Z,17.00
2023-02-13T08:55:03.682Z,19.38
2023-02-13T08:57:49.860Z,19.48
2023-02-13T09:00:35.658Z,34.08
2023-02-13T09:03:21.353Z,35.65
2023-02-13T09:06:07.314Z,37.38
2023-02-13T09:08:53.649Z,36.03
2023-02-13T09:11:39.424Z,35.88
2023-02-13T09:14:25.467Z,31.85
2023-02-13T09:17:11.608Z,30.90
2023-02-13T09:19:57.365Z,21.08
2023-02-13T09:22:43.225Z,16.90
2023-02-13T09:25:28.977Z,14.30
2023-02-13T09:28:14.890Z,13.30
2023-02-13T09:31:05.612Z,13.55
2023-02-13T09:33:51.737Z,11.02
2023-02-13T09:36:37.505Z,12.80
2023-02-13T09:39:23.320Z,12.07
2023-02-13T09:42:19.556Z,10.15
2023-02-13T09:45:06.996Z,10.43
2023-02-13T09:47:52.798Z,10.10
2023-02-13T09:50:39.781Z,10.13
2023-02-13T09:53:28.659Z,11.23
2023-02-13T09:56:16.845Z,7.65
2023-02-13T09:59:21.067Z,11.30
2023-02-13T10:02:28.286Z,9.65
2023-02-13T10:05:29.607Z,10.60
2023-02-13T10:08:43.832Z,9.98
2023-02-13T10:11:35.565Z,11.23
2023-02-13T10:14:32.918Z,8.82
2023-02-13T10:17:28.970Z,8.27
2023-02-13T10:20:26.153Z,8.15
2023-02-13T10:23:15.204Z,8.40
2023-02-13T10:26:02.979Z,8.40
2023-02-13T10:29:27.705Z,8.45
2023-02-13T10:32:17.155Z,9.25
2023-02-13T10:35:04.702Z,8.65
2023-02-13T10:37:54.664Z,7.03
2023-02-13T10:40:48.391Z,8.20
2023-02-13T10:43:58.691Z,8.05
2023-02-13T10:47:09.009Z,8.20
2023-02-13T10:50:04.365Z,7.55
2023-02-13T10:53:15.777Z,7.70
2023-02-13T10:56:10.676Z,7.20
2023-02-13T10:59:32.811Z,8.27
2023-02-13T11:02:31.848Z,8.82
2023-02-13T11:05:36.317Z,9.82
2023-02-13T11:08:33.691Z,8.90
2023-02-13T11:11:30.664Z,8.15
2023-02-13T11:14:24.601Z,8.95
2023-02-13T11:17:17.711Z,8.95
2023-02-13T11:20:07.549Z,8.50
2023-02-13T11:22:54.003Z,8.82
2023-02-13T11:25:40.038Z,8.80
2023-02-13T11:28:31.289Z,8.95
2023-02-13T11:31:34.827Z,9.80
2023-02-13T11:34:26.642Z,9.25
2023-02-13T11:37:15.423Z,9.27
2023-02-13T11:40:30.786Z,8.25
2023-02-13T11:43:24.349Z,8.18
2023-02-13T11:46:17.411Z,8.80
2023-02-13T11:49:04.569Z,9.38
2023-02-13T11:51:53.063Z,8.68
2023-02-13T11:54:40.940Z,10.48
2023-02-13T11:57:32.634Z,11.40
2023-02-13T12:00:32.411Z,8.60
2023-02-13T12:03:21.787Z,9.50
2023-02-13T12:06:11.056Z,9.85
2023-02-13T12:08:57.387Z,8.60
2023-02-13T12:11:48.679Z,9.70
2023-02-13T12:14:40.215Z,10.60
2023-02-13T12:17:32.533Z,8.73
2023-02-13T12:20:18.890Z,9.40
2023-02-13T12:23:14.037Z,9.55
2023-02-13T12:26:03.191Z,9.85
2023-02-13T12:29:07.380Z,9.05
2023-02-13T12:32:38.264Z,8.75
2023-02-13T12:35:48.489Z,10.82
2023-02-13T12:39:12.001Z,9.10
2023-02-13T12:42:16.920Z,9.25
2023-02-13T12:45:27.961Z,9.43
2023-02-13T12:48:51.176Z,8.98
2023-02-13T12:52:23.234Z,8.68
2023-02-13T12:55:31.814Z,9.05
2023-02-13T12:58:20.566Z,9.05
2023-02-13T13:01:18.850Z,8.63
2023-02-13T13:04:04.844Z,8.70
2023-02-13T13:07:02.738Z,8.55
2023-02-13T13:10:04.298Z,8.27
2023-02-13T13:12:55.848Z,7.60
2023-02-13T13:15:59.842Z,10.20
2023-02-13T13:19:06.935Z,7.53
2023-02-13T13:22:06.176Z,8.38
2023-02-13T13:25:16.854Z,8.52
2023-02-13T13:28:07.926Z,6.88
2023-02-13T13:30:53.870Z,7.90
2023-02-13T13:33:42.005Z,8.15
2023-02-13T13:36:28.041Z,6.90
2023-02-13T13:39:30.702Z,7.03
2023-02-13T13:42:31.198Z,6.80
2023-02-13T13:45:52.236Z,7.72
2023-02-13T13:48:45.954Z,6.80
2023-02-13T13:51:32.047Z,7.22
2023-02-13T13:54:20.257Z,6.90
2023-02-13T13:57:06.737Z,8.40
2023-02-13T13:59:58.115Z,7.13
2023-02-13T14:03:14.247Z,7.43
2023-02-13T14:06:11.713Z,7.25
2023-02-13T14:09:04.556Z,6.15
2023-02-13T14:11:50.684Z,6.95
2023-02-13T14:14:36.743Z,6.68
2023-02-13T14:17:44.513Z,6.75
2023-02-13T14:20:50.825Z,7.40
2023-02-13T14:23:43.001Z,7.60
2023-02-13T14:26:32.971Z,7.33
2023-02-13T14:29:48.339Z,7.30
2023-02-13T14:32:37.100Z,8.55
2023-02-13T14:35:34.387Z,8.50
2023-02-13T14:38:24.328Z,8.15
2023-02-13T14:41:49.442Z,8.25
2023-02-13T14:44:38.660Z,8.90
2023-02-13T14:47:30.990Z,7.95
2023-02-13T14:50:24.175Z,7.90
2023-02-13T14:53:17.878Z,8.05
2023-02-13T14:56:11.987Z,7.55
2023-02-13T14:59:12.957Z,9.05
2023-02-13T15:02:22.945Z,8.13
2023-02-13T15:05:14.785Z,9.13
2023-02-13T15:08:08.833Z,8.50
2023-02-13T15:10:56.354Z,7.95
2023-02-13T15:13:42.444Z,7.85
2023-02-13T15:16:28.157Z,7.82
2023-02-13T15:19:19.295Z,7.65
2023-02-13T15:22:06.044Z,8.80
2023-02-13T15:24:52.567Z,8.68
2023-02-13T15:27:43.573Z,10.43
2023-02-13T15:30:32.190Z,10.35
2023-02-13T15:33:20.931Z,9.20
2023-02-13T15:36:07.058Z,8.80
2023-02-13T15:39:00.420Z,9.68
2023-02-13T15:41:52.117Z,10.00
2023-02-13T15:44:40.306Z,7.93
2023-02-13T15:47:32.094Z,8.95
2023-02-13T15:50:30.406Z,9.60
2023-02-13T15:53:18.169Z,9.75
2023-02-13T15:56:05.526Z,9.25
2023-02-13T15:58:52.759Z,9.23
2023-02-13T16:01:40.726Z,8.98
2023-02-13T16:04:28.070Z,9.63
2023-02-13T16:07:14.626Z,11.25
2023-02-13T16:10:28.894Z,12.20
2023-02-13T16:13:17.208Z,11.43
2023-02-13T16:16:09.305Z,11.20
2023-02-13T16:18:55.048Z,14.43
2023-02-13T16:21:41.176Z,14.82
2023-02-13T16:24:28.028Z,12.77
2023-02-13T16:27:15.102Z,11.70
2023-02-13T16:30:04.120Z,16.90
2023-02-13T16:32:50.492Z,16.27
2023-02-13T16:35:39.446Z,17.50
2023-02-13T16:38:43.370Z,17.30
2023-02-13T16:41:31.156Z,19.80
2023-02-13T16:44:25.738Z,19.80
2023-02-13T16:47:22.348Z,19.95
2023-02-13T16:50:15.262Z,27.25
2023-02-13T16:53:04.743Z,26.83
2023-02-13T16:55:58.204Z,28.80
2023-02-13T16:58:44.080Z,29.33
2023-02-13T17:01:30.059Z,28.40
2023-02-13T17:04:24.626Z,26.13
2023-02-13T17:07:22.973Z,25.20
2023-02-13T17:10:27.498Z,29.52
2023-02-13T17:13:17.760Z,26.45
2023-02-13T17:16:05.566Z,23.77
2023-02-13T17:18:51.490Z,24.15
2023-02-13T17:21:37.600Z,24.13
2023-02-13T17:24:23.857Z,23.35
2023-02-13T17:27:10.836Z,21.48
2023-02-13T17:29:57.237Z,25.38
2023-02-13T17:32:44.885Z,25.35
2023-02-13T17:35:31.306Z,25.45
2023-02-13T17:38:17.567Z,26.40
2023-02-13T17:41:03.493Z,24.20
2023-02-13T17:43:49.304Z,25.42
2023-02-13T17:46:35.287Z,25.85
2023-02-13T17:49:21.128Z,23.88
2023-02-13T17:52:07.029Z,28.65
2023-02-13T17:54:53.053Z,25.25
2023-02-13T17:57:38.801Z,22.30
2023-02-13T18:00:29.177Z,23.17
2023-02-13T18:03:15.203Z,21.63
2023-02-13T18:06:01.194Z,26.73
2023-02-13T18:08:47.056Z,26.20
2023-02-13T18:11:32.952Z,28.15
2023-02-13T18:14:18.728Z,29.10
2023-02-13T18:17:04.565Z,26.80
2023-02-13T18:19:50.974Z,24.63
2023-02-13T18:22:37.000Z,22.73
2023-02-13T18:25:23.745Z,20.70
2023-02-13T18:28:09.690Z,25.42
2023-02-13T18:30:55.989Z,24.92
2023-02-13T18:33:42.311Z,25.73
2023-02-13T18:36:28.198Z,30.50
2023-02-13T18:39:14.601Z,36.30
2023-02-13T18:42:00.578Z,35.75
2023-02-13T18:44:46.435Z,28.70
2023-02-13T18:47:33.895Z,28.23
2023-02-13T18:50:20.161Z,29.75
2023-02-13T18:53:06.130Z,29.40
2023-02-13T18:56:02.851Z,31.25
2023-02-13T18:58:50.106Z,29.95
2023-02-13T19:01:36.718Z,29.33
2023-02-13T19:04:22.897Z,31.85
2023-02-13T19:07:08.906Z,25.92
2023-02-13T19:09:54.779Z,25.65
2023-02-13T19:12:40.518Z,35.03
2023-02-13T19:15:26.384Z,48.22
2023-02-13T19:18:12.579Z,40.90
2023-02-13T19:21:00.590Z,26.52
2023-02-13T19:23:47.127Z,29.98
2023-02-13T19:26:33.463Z,30.05
2023-02-13T19:29:19.432Z,24.67
2023-02-13T19:32:05.437Z,21.55
2023-02-13T19:34:51.351Z,22.13
2023-02-13T19:37:43.705Z,22.08
2023-02-13T19:43:15.940Z,21.70
2023-02-13T19:46:04.899Z,22.23
2023-02-13T19:48:50.982Z,22.48
2023-02-13T19:51:37.031Z,22.98
2023-02-13T19:54:22.877Z,21.55
2023-02-13T19:57:09.103Z,22.30
2023-02-13T19:59:55.078Z,22.98
2023-02-13T20:02:40.985Z,22.90
2023-02-13T20:05:26.982Z,26.95
2023-02-13T20:08:13.159Z,23.23
2023-02-13T20:11:00.985Z,21.00
2023-02-13T20:13:46.970Z,21.13
2023-02-13T20:16:35.602Z,20.13
2023-02-13T20:19:21.823Z,33.08
2023-02-13T20:22:07.842Z,24.63
2023-02-13T20:24:54.032Z,48.72
2023-02-13T20:27:42.634Z,58.80
2023-02-13T20:30:29.439Z,69.07
2023-02-13T20:33:15.840Z,71.82
2023-02-13T20:36:08.759Z,60.08
2023-02-13T20:38:57.073Z,55.28
2023-02-13T20:41:48.516Z,48.38
2023-02-13T20:44:34.579Z,53.05
2023-02-13T20:47:20.625Z,51.70
2023-02-13T20:50:07.145Z,48.85
2023-02-13T20:52:53.085Z,48.55
2023-02-13T20:55:39.110Z,50.40
2023-02-13T20:58:25.054Z,49.00
2023-02-13T21:01:15.641Z,45.53
2023-02-13T21:04:02.083Z,43.22
2023-02-13T21:06:48.716Z,36.13
2023-02-13T21:09:34.799Z,32.72
2023-02-13T21:12:21.040Z,29.90
2023-02-13T21:15:07.083Z,25.73
2023-02-13T21:17:53.020Z,20.45
2023-02-13T21:20:39.071Z,21.10
2023-02-13T21:23:24.889Z,19.27
2023-02-13T21:26:16.396Z,20.67
2023-02-13T21:29:02.274Z,48.08
2023-02-13T21:31:48.561Z,50.22
2023-02-13T21:34:34.836Z,57.22
2023-02-13T21:37:20.873Z,57.80
2023-02-13T21:40:13.175Z,67.68
2023-02-13T21:42:59.643Z,70.30
2023-02-13T21:45:45.684Z,61.08
2023-02-13T21:48:31.792Z,67.40
2023-02-13T21:51:20.056Z,71.30
2023-02-13T21:54:06.074Z,68.60
2023-02-13T21:56:52.104Z,69.15
2023-02-13T21:59:38.014Z,69.60
2023-02-13T22:02:24.277Z,66.43
2023-02-13T22:05:10.406Z,64.25
2023-02-13T22:08:11.596Z,60.28
2023-02-13T22:10:59.507Z,62.85
2023-02-13T22:13:45.860Z,58.05
2023-02-13T22:16:34.033Z,60.97
2023-02-13T22:19:21.076Z,65.53
2023-02-13T22:22:07.187Z,60.72
2023-02-13T22:24:52.874Z,66.00
2023-02-13T22:27:38.776Z,57.47
2023-02-13T22:30:24.823Z,64.78
2023-02-13T22:33:10.544Z,67.15
2023-02-13T22:35:56.510Z,61.28
2023-02-13T22:38:42.415Z,67.38
2023-02-13T22:41:28.402Z,63.90
2023-02-13T22:44:14.238Z,68.20
2023-02-13T22:46:59.952Z,70.95
2023-02-13T22:49:45.792Z,67.78
2023-02-13T22:52:31.689Z,74.45
2023-02-13T22:55:17.589Z,67.35
2023-02-13T22:58:03.483Z,68.43
2023-02-13T23:00:49.388Z,61.80
2023-02-13T23:03:35.050Z,52.97
2023-02-13T23:06:21.978Z,50.40
2023-02-13T23:09:08.717Z,51.42
2023-02-13T23:12:13.315Z,50.72
2023-02-13T23:14:59.656Z,54.47
2023-02-13T23:18:04.336Z,59.97
2023-02-13T23:20:50.335Z,52.38
2023-02-13T23:23:37.081Z,57.10
2023-02-13T23:26:23.013Z,67.82
2023-02-13T23:29:09.138Z,66.65
2023-02-13T23:31:55.554Z,69.50
2023-02-13T23:34:41.593Z,65.03
2023-02-13T23:37:27.349Z,64.72
2023-02-13T23:40:15.124Z,63.00
2023-02-13T23:43:01.418Z,56.05
2023-02-13T23:45:47.271Z,60.00
2023-02-13T23:48:34.017Z,67.20
2023-02-13T23:51:21.350Z,67.90
2023-02-13T23:54:07.416Z,72.97
2023-02-13T23:56:55.065Z,73.35
2023-02-13T23:59:41.034Z,68.15
